Time;durP1;ratioP1;P1;durP2;ratioP2;P2;SDS_P1;SDS_P2;PMS_P1;PMS_P2;Temp;Humidity;BMP_temperature;BMP_pressure;BME280_temperature;BME280_humidity;BME280_pressure;Samples;Min_cycle;Max_cycle;Signal;HPM_P1;HPM_P2
2020/12/30 00:00:10;;;;;;;53.63;37.95;;;5.70;99.90;;;;;;5053121;28;20184;-81
2020/12/30 00:02:37;;;;;;;54.22;36.63;;;5.70;99.90;;;;;;5063741;28;20208;-81
2020/12/30 00:05:07;;;;;;;53.53;36.90;;;5.70;99.90;;;;;;5067368;28;20223;-80
2020/12/30 00:07:34;;;;;;;54.08;36.20;;;5.60;99.90;;;;;;5069144;28;20227;-82
2020/12/30 00:10:00;;;;;;;54.72;37.05;;;5.60;99.90;;;;;;5066051;28;20234;-82
2020/12/30 00:12:28;;;;;;;50.78;37.28;;;5.70;99.90;;;;;;5065905;28;20672;-81
2020/12/30 00:14:55;;;;;;;53.72;37.65;;;5.70;99.90;;;;;;5056585;28;20207;-82
2020/12/30 00:17:22;;;;;;;50.58;38.75;;;5.70;99.90;;;;;;5067758;28;20609;-82
2020/12/30 00:19:49;;;;;;;51.97;37.53;;;5.70;99.90;;;;;;5054714;28;20303;-83
2020/12/30 00:22:17;;;;;;;48.83;35.78;;;5.70;99.90;;;;;;5062819;28;20211;-82
2020/12/30 00:24:43;;;;;;;44.33;31.25;;;5.80;99.90;;;;;;5059428;28;20230;-82
2020/12/30 00:27:10;;;;;;;50.97;35.28;;;5.80;99.90;;;;;;5059045;28;20259;-81
2020/12/30 00:29:37;;;;;;;48.63;35.80;;;5.80;99.90;;;;;;5061535;28;20188;-81
2020/12/30 00:32:04;;;;;;;45.28;33.97;;;5.80;99.90;;;;;;5052944;28;20211;-78
2020/12/30 00:34:31;;;;;;;53.50;37.03;;;5.80;99.90;;;;;;5055949;28;20198;-80
2020/12/30 00:37:00;;;;;;;45.67;33.78;;;5.90;99.90;;;;;;5057208;28;20224;-81
2020/12/30 00:39:27;;;;;;;43.63;32.40;;;5.90;99.90;;;;;;5067188;28;20218;-82
2020/12/30 00:41:56;;;;;;;41.63;32.53;;;6.00;99.90;;;;;;5063984;28;20206;-80
2020/12/30 00:44:23;;;;;;;42.80;32.33;;;5.90;99.90;;;;;;5066754;28;20554;-81
2020/12/30 00:46:53;;;;;;;48.72;33.85;;;5.80;99.90;;;;;;5061881;28;20239;-82
2020/12/30 00:49:20;;;;;;;53.63;35.95;;;5.70;99.90;;;;;;5061084;28;20709;-82
2020/12/30 00:51:51;;;;;;;52.53;37.58;;;5.70;99.90;;;;;;5054528;28;20242;-84
2020/12/30 00:54:17;;;;;;;49.08;34.67;;;5.70;99.90;;;;;;5064333;28;20210;-82
2020/12/30 00:56:47;;;;;;;50.00;34.92;;;5.70;99.90;;;;;;5063410;28;20288;-80
2020/12/30 00:59:14;;;;;;;52.38;34.45;;;5.70;99.90;;;;;;5057817;28;20205;-81
2020/12/30 01:01:40;;;;;;;45.88;35.28;;;5.70;99.90;;;;;;5047251;28;20197;-79
2020/12/30 01:04:07;;;;;;;47.10;36.90;;;5.60;99.90;;;;;;5063987;28;20226;-81
2020/12/30 01:06:34;;;;;;;55.42;36.47;;;5.60;99.90;;;;;;5054530;28;20235;-82
2020/12/30 01:09:00;;;;;;;56.15;37.80;;;5.60;99.90;;;;;;5063283;28;20279;-81
2020/12/30 01:11:28;;;;;;;50.00;35.92;;;5.60;99.90;;;;;;5057006;28;20203;-80
2020/12/30 01:13:57;;;;;;;53.58;38.33;;;5.50;99.90;;;;;;5062216;28;20227;-82
2020/12/30 01:16:24;;;;;;;51.00;34.30;;;5.50;99.90;;;;;;5059457;28;20225;-83
2020/12/30 01:18:51;;;;;;;53.53;37.50;;;5.50;99.90;;;;;;5068227;28;20208;-81
2020/12/30 01:21:17;;;;;;;57.72;38.53;;;5.50;99.90;;;;;;5070097;28;20204;-83
2020/12/30 01:23:44;;;;;;;54.30;36.85;;;5.40;99.90;;;;;;5053808;28;20219;-81
2020/12/30 01:26:11;;;;;;;54.28;36.70;;;5.50;99.90;;;;;;5060203;28;20216;-82
2020/12/30 01:28:52;;;;;;;47.65;34.65;;;5.40;99.90;;;;;;5063097;28;20203;-81
2020/12/30 01:31:25;;;;;;;54.30;34.42;;;5.40;99.90;;;;;;5056515;28;20222;-82
2020/12/30 01:33:52;;;;;;;48.63;35.17;;;5.40;99.90;;;;;;5076141;28;20192;-80
2020/12/30 01:36:19;;;;;;;47.17;33.38;;;5.50;99.90;;;;;;5072595;28;20220;-81
2020/12/30 01:38:46;;;;;;;48.45;33.85;;;5.40;99.90;;;;;;5069541;28;20196;-81
2020/12/30 01:41:12;;;;;;;51.40;34.38;;;5.30;99.90;;;;;;5073401;28;20192;-81
2020/12/30 01:43:39;;;;;;;45.33;34.25;;;5.30;99.90;;;;;;5075601;28;20322;-80
2020/12/30 01:46:06;;;;;;;57.63;33.60;;;5.30;99.90;;;;;;5068355;28;20204;-82
2020/12/30 01:48:35;;;;;;;43.75;31.98;;;5.20;99.90;;;;;;5062898;28;20200;-80
2020/12/30 01:51:03;;;;;;;43.60;31.70;;;5.20;99.90;;;;;;5077601;28;20526;-81
2020/12/30 01:53:29;;;;;;;51.05;35.92;;;5.20;99.90;;;;;;5077104;28;20186;-81
2020/12/30 01:55:57;;;;;;;48.20;35.45;;;5.10;99.90;;;;;;5077352;28;20224;-80
2020/12/30 01:58:25;;;;;;;44.25;31.70;;;5.00;99.90;;;;;;5072525;28;20192;-81
2020/12/30 02:00:56;;;;;;;48.53;35.38;;;5.10;99.90;;;;;;5049173;28;20227;-80
2020/12/30 02:03:23;;;;;;;49.83;30.50;;;5.10;99.90;;;;;;5057078;28;20196;-82
2020/12/30 02:05:51;;;;;;;46.30;31.88;;;5.10;99.90;;;;;;5066049;28;20369;-83
2020/12/30 02:08:17;;;;;;;45.10;33.40;;;5.00;99.90;;;;;;5060297;28;20204;-81
2020/12/30 02:10:44;;;;;;;56.55;38.13;;;5.00;99.90;;;;;;5060653;28;20203;-81
2020/12/30 02:13:11;;;;;;;46.60;34.03;;;4.90;99.90;;;;;;5066353;28;20521;-81
2020/12/30 02:15:37;;;;;;;45.85;32.97;;;4.90;99.90;;;;;;5065626;28;20191;-82
2020/12/30 02:18:04;;;;;;;50.35;35.28;;;4.80;99.90;;;;;;5052886;28;20215;-82
2020/12/30 02:20:31;;;;;;;44.67;33.67;;;4.80;99.90;;;;;;5065628;28;20191;-82
2020/12/30 02:23:03;;;;;;;48.70;34.33;;;4.90;99.90;;;;;;5062161;28;20196;-81
2020/12/30 02:25:33;;;;;;;49.47;33.42;;;4.90;99.90;;;;;;5046335;28;20220;-82
2020/12/30 02:28:02;;;;;;;51.67;36.40;;;4.90;99.90;;;;;;5062887;28;20200;-81
2020/12/30 02:30:31;;;;;;;51.53;36.03;;;4.90;99.90;;;;;;5063065;28;20778;-82
2020/12/30 02:32:58;;;;;;;53.47;33.40;;;5.00;99.90;;;;;;5055372;28;20203;-82
2020/12/30 02:35:25;;;;;;;49.20;33.47;;;5.00;99.90;;;;;;5055029;28;20195;-82
2020/12/30 02:37:52;;;;;;;45.15;33.17;;;5.00;99.90;;;;;;5064397;28;20223;-81
2020/12/30 02:40:18;;;;;;;54.28;34.95;;;5.00;99.90;;;;;;5062291;28;20831;-82
2020/12/30 02:42:46;;;;;;;47.60;35.60;;;5.00;99.90;;;;;;5054873;28;20261;-82
2020/12/30 02:45:12;;;;;;;51.75;34.80;;;5.00;99.90;;;;;;5064377;28;20231;-82
2020/12/30 02:47:39;;;;;;;50.40;33.58;;;5.10;99.90;;;;;;5054991;28;20303;-82
2020/12/30 02:50:06;;;;;;;48.90;31.80;;;5.10;99.90;;;;;;5053740;28;20200;-83
2020/12/30 02:52:33;;;;;;;48.47;34.25;;;5.20;99.90;;;;;;5062286;28;20213;-81
2020/12/30 02:54:59;;;;;;;48.75;36.67;;;5.10;99.90;;;;;;5055650;28;20215;-82
2020/12/30 02:57:27;;;;;;;40.00;28.95;;;5.20;99.90;;;;;;5057796;28;20208;-80
2020/12/30 02:59:58;;;;;;;48.05;35.30;;;5.10;99.90;;;;;;5064538;28;20229;-81
2020/12/30 03:02:25;;;;;;;52.08;35.50;;;5.10;99.90;;;;;;5063980;28;20211;-81
2020/12/30 03:04:52;;;;;;;51.80;36.17;;;5.00;99.90;;;;;;5071162;28;20293;-81
2020/12/30 03:07:19;;;;;;;48.03;34.15;;;5.10;99.90;;;;;;5061591;28;20616;-81
2020/12/30 03:09:46;;;;;;;49.97;34.35;;;5.00;99.90;;;;;;5067703;28;20199;-80
2020/12/30 03:12:12;;;;;;;51.35;35.65;;;5.00;99.90;;;;;;5060018;28;20188;-80
2020/12/30 03:14:39;;;;;;;41.13;32.78;;;5.00;99.90;;;;;;5071684;28;20199;-81
2020/12/30 03:17:06;;;;;;;46.80;34.17;;;4.90;99.90;;;;;;5071155;28;20257;-82
2020/12/30 03:19:33;;;;;;;50.00;34.25;;;5.10;99.90;;;;;;5051120;28;20222;-82
2020/12/30 03:22:00;;;;;;;51.35;33.55;;;5.20;99.90;;;;;;5064439;28;20211;-81
2020/12/30 03:24:26;;;;;;;46.40;34.53;;;5.20;99.90;;;;;;5054294;28;20227;-81
2020/12/30 03:26:53;;;;;;;44.58;32.22;;;5.20;99.90;;;;;;5054648;28;20217;-80
2020/12/30 03:29:23;;;;;;;39.20;29.40;;;5.20;99.90;;;;;;5064471;28;20199;-82
2020/12/30 03:31:50;;;;;;;39.13;28.77;;;5.30;99.90;;;;;;5057906;28;20282;-80
2020/12/30 03:34:17;;;;;;;44.15;30.90;;;5.30;99.90;;;;;;5063474;28;20222;-80
2020/12/30 03:36:44;;;;;;;49.63;32.20;;;5.40;99.90;;;;;;5063608;28;20590;-82
2020/12/30 03:39:11;;;;;;;42.40;30.25;;;5.30;99.90;;;;;;5052649;28;20212;-80
2020/12/30 03:41:37;;;;;;;48.95;34.83;;;5.30;99.90;;;;;;5057221;28;20192;-81
2020/12/30 03:44:04;;;;;;;40.33;30.08;;;5.30;99.90;;;;;;5058088;28;20633;-83
2020/12/30 03:46:30;;;;;;;40.75;30.83;;;5.30;99.90;;;;;;5072831;28;20219;-80
2020/12/30 03:48:57;;;;;;;37.47;28.83;;;5.30;99.90;;;;;;5072539;28;20203;-80
2020/12/30 03:51:24;;;;;;;43.15;31.33;;;5.30;99.90;;;;;;5062920;28;20214;-81
2020/12/30 03:53:51;;;;;;;38.00;28.08;;;5.30;99.90;;;;;;5043979;28;20336;-82
2020/12/30 03:56:17;;;;;;;45.72;30.20;;;5.30;99.90;;;;;;5049224;28;20220;-80
2020/12/30 03:58:44;;;;;;;43.33;32.00;;;5.30;99.90;;;;;;5052913;28;20200;-80
2020/12/30 04:01:11;;;;;;;51.28;32.90;;;5.30;99.90;;;;;;5057681;28;20203;-81
2020/12/30 04:03:41;;;;;;;46.85;31.75;;;5.30;99.90;;;;;;5060989;28;20212;-81
2020/12/30 04:06:08;;;;;;;47.47;31.55;;;5.20;99.90;;;;;;5054188;28;20252;-82
2020/12/30 04:08:36;;;;;;;40.17;28.52;;;5.20;99.90;;;;;;5066294;28;20207;-81
2020/12/30 04:11:03;;;;;;;37.38;29.35;;;5.20;99.90;;;;;;5068068;28;20239;-82
2020/12/30 04:13:30;;;;;;;37.97;28.75;;;5.20;99.90;;;;;;5067803;28;20215;-82
2020/12/30 04:15:56;;;;;;;42.38;30.23;;;5.30;99.90;;;;;;5066993;28;20228;-83
2020/12/30 04:18:23;;;;;;;40.80;29.58;;;5.30;99.90;;;;;;5060318;28;21212;-82
2020/12/30 04:20:50;;;;;;;40.67;28.65;;;5.30;99.90;;;;;;5068525;28;20195;-82
2020/12/30 04:23:16;;;;;;;37.42;28.25;;;5.30;99.90;;;;;;5059592;28;20205;-81
2020/12/30 04:25:47;;;;;;;39.10;29.20;;;5.20;99.90;;;;;;5067377;28;20219;-82
2020/12/30 04:28:14;;;;;;;37.60;29.00;;;5.20;99.90;;;;;;5065874;28;20242;-81
2020/12/30 04:30:42;;;;;;;38.25;31.25;;;5.20;99.90;;;;;;5067814;28;20207;-82
2020/12/30 04:33:11;;;;;;;37.75;30.02;;;5.10;99.90;;;;;;5064434;28;20551;-81
2020/12/30 04:35:37;;;;;;;39.10;29.55;;;5.20;99.90;;;;;;5067869;28;20200;-81
2020/12/30 04:38:05;;;;;;;40.25;29.60;;;5.10;99.90;;;;;;5067920;28;20206;-81
2020/12/30 04:40:32;;;;;;;38.25;29.17;;;5.20;99.90;;;;;;5068037;28;20237;-81
2020/12/30 04:43:03;;;;;;;35.78;28.77;;;5.20;99.90;;;;;;5070121;28;20215;-81
2020/12/30 04:45:30;;;;;;;38.53;27.75;;;5.10;99.90;;;;;;5054858;28;20224;-82
2020/12/30 04:48:00;;;;;;;41.92;29.25;;;5.00;99.90;;;;;;5064299;28;20239;-81
2020/12/30 04:50:27;;;;;;;35.10;28.35;;;5.10;99.90;;;;;;5068871;28;20202;-82
2020/12/30 04:52:54;;;;;;;38.08;29.33;;;5.20;99.90;;;;;;5068500;28;20581;-81
2020/12/30 04:55:24;;;;;;;37.92;29.00;;;5.10;99.90;;;;;;5061216;28;20207;-81
2020/12/30 04:58:04;;;;;;;40.63;28.85;;;5.00;99.90;;;;;;5068754;28;20227;-82
2020/12/30 05:00:36;;;;;;;38.28;28.83;;;5.00;99.90;;;;;;5053961;28;20210;-80
2020/12/30 05:03:06;;;;;;;40.78;28.30;;;5.00;99.90;;;;;;5070353;28;20298;-81
2020/12/30 05:05:35;;;;;;;37.70;26.33;;;4.90;99.90;;;;;;5069412;28;20243;-80
2020/12/30 05:08:03;;;;;;;38.05;28.33;;;5.00;99.90;;;;;;5066136;28;20351;-82
2020/12/30 05:10:29;;;;;;;35.35;26.42;;;5.00;99.90;;;;;;5074060;28;20196;-81
2020/12/30 05:12:56;;;;;;;33.72;27.65;;;5.00;99.90;;;;;;5074444;28;20207;-82
2020/12/30 05:15:24;;;;;;;39.05;28.33;;;4.90;99.90;;;;;;5060131;28;20211;-81
2020/12/30 05:17:53;;;;;;;36.67;29.02;;;4.90;99.90;;;;;;5072512;28;20241;-81
2020/12/30 05:20:19;;;;;;;39.67;28.30;;;4.90;99.90;;;;;;5061026;28;20215;-82
2020/12/30 05:22:47;;;;;;;45.20;29.65;;;4.80;99.90;;;;;;5064893;28;20208;-81
2020/12/30 05:25:14;;;;;;;34.78;27.05;;;4.80;99.90;;;;;;5060490;28;20224;-81
2020/12/30 05:27:50;;;;;;;31.08;26.25;;;4.90;99.90;;;;;;5067991;28;20318;-80
2020/12/30 05:30:17;;;;;;;39.72;29.25;;;4.80;99.90;;;;;;5068424;28;20190;-80
2020/12/30 05:32:44;;;;;;;37.85;29.23;;;4.80;99.90;;;;;;5057036;28;20226;-80
2020/12/30 05:35:14;;;;;;;35.35;27.25;;;4.80;99.90;;;;;;5061722;28;20199;-80
2020/12/30 05:37:41;;;;;;;34.72;27.73;;;4.70;99.90;;;;;;5052436;28;20284;-81
2020/12/30 05:40:19;;;;;;;33.50;26.67;;;4.70;99.90;;;;;;5053354;28;20230;-81
2020/12/30 05:42:46;;;;;;;35.33;28.20;;;4.70;99.90;;;;;;5047804;28;20231;-84
2020/12/30 05:45:18;;;;;;;34.85;25.45;;;4.70;99.90;;;;;;5061544;28;20227;-81
2020/12/30 05:47:46;;;;;;;39.58;28.42;;;4.70;99.90;;;;;;5067276;28;20227;-80
2020/12/30 05:50:23;;;;;;;36.70;28.27;;;4.70;99.90;;;;;;5063685;28;20263;-80
2020/12/30 05:52:53;;;;;;;38.25;27.67;;;4.70;99.90;;;;;;5059507;28;20266;-80
2020/12/30 05:55:26;;;;;;;38.97;28.45;;;4.70;99.90;;;;;;5066221;28;20225;-81
2020/12/30 05:57:53;;;;;;;37.58;27.65;;;4.70;99.90;;;;;;5065443;28;20233;-81
2020/12/30 06:00:20;;;;;;;38.97;26.60;;;4.80;99.90;;;;;;5065143;28;20213;-82
2020/12/30 06:02:48;;;;;;;35.50;28.33;;;4.80;99.90;;;;;;5056832;28;20207;-83
2020/12/30 06:05:16;;;;;;;35.88;25.90;;;4.80;99.90;;;;;;5050298;28;20231;-82
2020/12/30 06:07:45;;;;;;;35.45;26.67;;;4.90;99.90;;;;;;5063421;28;20211;-81
2020/12/30 06:10:13;;;;;;;35.28;25.40;;;4.90;99.90;;;;;;5060923;28;20210;-82
2020/12/30 06:12:45;;;;;;;36.80;27.33;;;5.00;99.90;;;;;;5067614;28;20271;-80
2020/12/30 06:15:14;;;;;;;33.58;26.10;;;4.90;99.90;;;;;;5060105;28;20203;-82
2020/12/30 06:17:53;;;;;;;39.95;26.30;;;4.90;99.90;;;;;;5059542;28;20708;-80
2020/12/30 06:20:31;;;;;;;37.75;28.98;;;4.80;99.90;;;;;;5066592;28;20279;-81
2020/12/30 06:22:59;;;;;;;39.65;26.92;;;4.80;99.90;;;;;;5057978;28;20226;-81
2020/12/30 06:25:27;;;;;;;40.08;28.25;;;4.90;99.90;;;;;;5066082;28;20280;-80
2020/12/30 06:27:54;;;;;;;37.78;27.13;;;4.80;99.90;;;;;;5075389;28;20230;-80
2020/12/30 06:30:21;;;;;;;37.97;28.10;;;4.80;99.90;;;;;;5077469;28;20247;-80
2020/12/30 06:32:50;;;;;;;35.67;25.77;;;4.90;99.90;;;;;;5063958;28;20192;-80
2020/12/30 06:35:26;;;;;;;34.33;27.58;;;4.80;99.90;;;;;;5077608;28;20195;-81
2020/12/30 06:37:53;;;;;;;38.35;26.98;;;4.70;99.90;;;;;;5074384;28;20322;-80
2020/12/30 06:40:22;;;;;;;35.38;28.70;;;4.70;99.90;;;;;;5070733;28;20222;-81
2020/12/30 06:42:55;;;;;;;34.70;27.48;;;4.60;99.90;;;;;;5049558;28;20215;-81
2020/12/30 06:45:51;;;;;;;40.50;27.65;;;4.60;99.90;;;;;;5066787;28;20314;-81
2020/12/30 06:48:20;;;;;;;40.63;28.73;;;4.70;99.90;;;;;;5005414;28;20224;-82
2020/12/30 06:50:48;;;;;;;37.20;26.95;;;4.70;99.90;;;;;;5039288;28;20280;-82
2020/12/30 06:53:35;;;;;;;34.97;27.65;;;4.70;99.90;;;;;;5059446;28;20271;-82
2020/12/30 06:56:06;;;;;;;32.67;24.77;;;4.70;99.90;;;;;;5058272;28;20203;-83
2020/12/30 06:58:43;;;;;;;36.08;28.52;;;4.70;99.90;;;;;;5069410;28;20255;-83
2020/12/30 07:01:10;;;;;;;35.47;27.83;;;4.70;99.90;;;;;;5066847;28;20199;-82
2020/12/30 07:03:36;;;;;;;39.22;29.77;;;4.70;99.90;;;;;;5065928;28;20218;-81
2020/12/30 07:06:32;;;;;;;40.42;28.63;;;4.70;99.90;;;;;;5059216;28;20232;-81
2020/12/30 07:09:01;;;;;;;34.90;25.77;;;4.70;99.90;;;;;;5064122;28;20589;-80
2020/12/30 07:11:45;;;;;;;41.88;28.98;;;4.70;99.90;;;;;;5068464;28;20779;-81
2020/12/30 07:14:13;;;;;;;40.03;29.35;;;4.70;99.90;;;;;;5069701;28;20216;-81
2020/12/30 07:16:48;;;;;;;37.55;26.23;;;4.80;99.90;;;;;;5070691;28;20238;-80
2020/12/30 07:19:16;;;;;;;35.60;27.35;;;4.80;99.90;;;;;;5071024;28;20187;-81
2020/12/30 07:22:06;;;;;;;41.40;27.77;;;4.90;99.90;;;;;;5070208;28;20195;-81
2020/12/30 07:24:36;;;;;;;31.42;24.42;;;4.70;99.90;;;;;;5063294;28;20224;-81
2020/12/30 07:27:04;;;;;;;37.63;27.10;;;4.80;99.90;;;;;;5065756;28;20219;-81
2020/12/30 07:29:31;;;;;;;36.50;24.80;;;4.80;99.90;;;;;;5066847;28;20200;-81
2020/12/30 07:32:00;;;;;;;37.13;27.02;;;4.90;99.90;;;;;;5062308;28;20184;-81
2020/12/30 07:34:30;;;;;;;33.25;26.55;;;4.90;99.90;;;;;;5064523;28;20311;-81
2020/12/30 07:36:58;;;;;;;36.90;28.45;;;4.80;99.90;;;;;;5063769;28;20230;-81
2020/12/30 07:39:29;;;;;;;35.95;26.20;;;4.80;99.90;;;;;;5054528;28;20253;-81
2020/12/30 07:41:56;;;;;;;38.92;27.45;;;4.80;99.90;;;;;;5077009;28;20223;-78
2020/12/30 07:44:24;;;;;;;40.22;28.60;;;4.70;99.90;;;;;;5070306;28;20260;-80
2020/12/30 07:46:51;;;;;;;44.42;29.80;;;4.70;99.90;;;;;;5071795;28;20206;-80
2020/12/30 07:49:21;;;;;;;44.40;29.60;;;4.70;99.90;;;;;;5078039;28;20206;-79
